West Palm Beach, FL (33406)

1:20 AM EDT on August 28, 2016 (GMT -0400)
Lake Clarke Shores - Caribbean Rd. East | | Change Station

Elev 16 ft 26.63 °N, 80.07 °W | Updated 6 seconds ago

Thunderstorm
Thunderstorm
82.0 °F
Feels Like 92 °F
N
8.1
Wind Variable Wind from East
Gusts 8.1 mph

Today
High -- | Low -- °F
--% Chance of Precip.
Yesterday
High -- | Low -- °F
Precip. -- in
Pressure 29.93 in
Visibility 7.0 miles
Clouds Few 2900 ft
Scattered Clouds 3500 ft
Scattered Clouds 25000 ft
Heat Index 92 °F
Dew Point 80 °F
Humidity 92%
Rainfall 0.00 in
Snow Depth Not available.
6:58 AM 7:43 PM
Waning Crescent, 18% visible
METAR KPBI 280453Z COR 06004KT 7SM TS FEW029CB SCT035 SCT250 28/25 A2993 RMK AO2 RAE13 TSE06B25 SLP135 OCN LTGICCG W-NW TS W-NW MOV NW P0003 T02780250 403280272 $
Pressure 29.93 in
Visibility 7.0 miles
Clouds Few 2900 ft
Scattered Clouds 3500 ft
Scattered Clouds 25000 ft
Heat Index 92 °F
Dew Point 80 °F
Humidity 92%
Rainfall 0.00 in
Snow Depth Not available.
6:58 AM 7:43 PM
Waning Crescent, 18% visible
METAR KPBI 280453Z COR 06004KT 7SM TS FEW029CB SCT035 SCT250 28/25 A2993 RMK AO2 RAE13 TSE06B25 SLP135 OCN LTGICCG W-NW TS W-NW MOV NW P0003 T02780250 403280272 $

10-Day Weather Forecast

Almanac

Astronomy

Aug. 28, 2016 Rise Set
Actual Time
Civil Twilight
Nautical Twilight
Astronomical Twilight
Moon
Length of Visible Light
Length of Day
Tomorrow will be .
, % of the Moon is Illuminated

Today's Extremes

State Highs State Lows

Community

WunderPhotos

Upload Photos

1,935,531 photos uploaded!

WunderBlog® & News

Nearby

Air Quality

  Air Quality AQ Index Pollutant
Not available.

Snow Depth

Station Depth Elevation

Earthquake Activity

City Distance Mag. Time & Date
Minimum magnitude displayed is 2.5.

Coastal Water Temperatures

Place Temperature

Stations

Nearby Weather Stations

Station Location Temp. Windchill Dew Point Humidity Wind Precip. Elev Updated Type
                   

Watches & Warnings

There are currently no watches in effect.